Time;durP1;ratioP1;P1;durP2;ratioP2;P2;SDS_P1;SDS_P2;PMS_P1;PMS_P2;Temp;Humidity;BMP_temperature;BMP_pressure;BME280_temperature;BME280_humidity;BME280_pressure;Samples;Min_cycle;Max_cycle;Signal;HPM_P1;HPM_P2
2021/12/09 00:01:47;;;;;;;4.32;1.75;;;;;;;5.22;61.93;99855.94;5061480;28;20036;-86
2021/12/09 00:04:14;;;;;;;3.05;1.80;;;;;;;5.26;62.15;99849.88;5053120;28;20183;-86
2021/12/09 00:06:44;;;;;;;8.07;2.28;;;;;;;4.85;62.83;99850.44;5061843;28;20043;-86
2021/12/09 00:09:15;;;;;;;6.82;1.92;;;;;;;5.09;62.31;99850.09;5055246;28;20047;-85
2021/12/09 00:11:45;;;;;;;3.15;1.80;;;;;;;5.09;61.68;99850.09;5052146;28;20108;-85
2021/12/09 00:14:30;;;;;;;6.05;2.10;;;;;;;5.23;61.48;99849.94;5058610;28;20484;-86
2021/12/09 00:16:59;;;;;;;4.57;1.40;;;;;;;4.93;62.20;99850.34;5057824;28;20033;-86
2021/12/09 00:19:25;;;;;;;4.18;1.80;;;;;;;4.91;62.44;99855.50;5059236;28;20035;-86
2021/12/09 00:21:50;;;;;;;7.00;1.80;;;;;;;5.07;61.90;99851.00;5058363;28;20568;-86
2021/12/09 00:24:17;;;;;;;4.05;1.85;;;;;;;5.07;61.96;99851.00;5057978;28;20133;-85
2021/12/09 00:26:46;;;;;;;6.72;1.40;;;;;;;5.21;61.24;99854.22;5058155;28;20060;-85
2021/12/09 00:29:14;;;;;;;5.43;1.55;;;;;;;5.17;61.61;99853.44;5056938;28;20028;-86
2021/12/09 00:31:39;;;;;;;5.85;2.33;;;;;;;4.91;62.00;99853.75;5060465;28;20045;-86
2021/12/09 00:34:05;;;;;;;4.18;2.25;;;;;;;5.01;61.92;99849.34;5035119;28;20387;-86
2021/12/09 00:36:38;;;;;;;4.85;1.80;;;;;;;4.99;61.65;99848.53;5054284;28;20036;-86
2021/12/09 00:39:06;;;;;;;4.07;1.48;;;;;;;5.08;61.30;99853.56;5047443;28;20095;-85
2021/12/09 00:41:31;;;;;;;3.97;1.58;;;;;;;5.17;61.10;99847.44;5059403;28;20016;-86
2021/12/09 00:43:57;;;;;;;2.97;1.52;;;;;;;5.02;61.27;99852.78;5057787;28;20047;-86
2021/12/09 00:46:22;;;;;;;8.63;2.42;;;;;;;5.11;60.97;99853.53;5053962;28;20033;-86
2021/12/09 00:48:48;;;;;;;6.97;2.35;;;;;;;5.04;61.45;99862.19;5052491;28;20124;-86
2021/12/09 00:51:14;;;;;;;9.20;2.42;;;;;;;5.02;61.69;99860.50;5056122;28;20483;-86
2021/12/09 00:53:40;;;;;;;10.27;2.78;;;;;;;4.96;61.99;99858.88;5053134;28;20043;-84
2021/12/09 00:56:08;;;;;;;3.67;2.00;;;;;;;4.96;61.43;99858.00;5066212;28;20040;-86
2021/12/09 00:58:34;;;;;;;6.50;1.98;;;;;;;5.09;61.56;99859.56;5060159;28;20082;-86
2021/12/09 01:00:59;;;;;;;9.45;2.33;;;;;;;5.08;60.81;99861.28;5053191;28;20108;-86
2021/12/09 01:03:25;;;;;;;6.65;2.13;;;;;;;5.12;60.63;99859.53;5066457;28;20028;-85
2021/12/09 01:05:50;;;;;;;5.97;2.50;;;;;;;5.23;60.24;99866.25;5055954;28;20036;-85
2021/12/09 01:08:16;;;;;;;9.13;2.67;;;;;;;5.02;60.70;99868.22;5054082;28;20500;-85
2021/12/09 01:10:42;;;;;;;6.43;2.40;;;;;;;5.09;60.84;99864.72;5061019;28;20505;-85
2021/12/09 01:13:08;;;;;;;7.60;2.70;;;;;;;5.16;60.39;99867.19;5060549;28;20029;-85
2021/12/09 01:15:34;;;;;;;5.88;2.67;;;;;;;5.22;60.00;99866.25;5061896;28;20116;-85
2021/12/09 01:18:00;;;;;;;7.35;2.80;;;;;;;5.11;60.89;99870.69;5057975;28;20186;-85
2021/12/09 01:20:26;;;;;;;9.05;2.80;;;;;;;4.95;61.37;99875.19;5051496;28;20082;-86
2021/12/09 01:22:54;;;;;;;4.18;2.58;;;;;;;5.02;61.22;99883.69;5062123;28;20385;-85
2021/12/09 01:25:22;;;;;;;7.68;2.65;;;;;;;5.19;61.55;99877.44;5058149;28;20050;-86
2021/12/09 01:27:50;;;;;;;7.25;2.20;;;;;;;5.29;61.61;99884.19;5056719;28;20583;-85
2021/12/09 01:30:18;;;;;;;6.88;2.63;;;;;;;5.30;61.38;99887.56;5057501;28;20029;-85
2021/12/09 01:32:51;;;;;;;5.93;2.17;;;;;;;5.46;61.17;99886.50;5051460;28;20099;-85
2021/12/09 01:35:21;;;;;;;5.13;2.47;;;;;;;5.44;61.47;99896.81;5055484;28;20017;-85
2021/12/09 01:37:48;;;;;;;4.88;2.10;;;;;;;5.53;61.00;99892.44;5055544;28;20128;-85
2021/12/09 01:40:15;;;;;;;7.32;2.00;;;;;;;5.49;60.74;99894.19;5055187;28;20125;-86
2021/12/09 01:42:42;;;;;;;6.57;2.50;;;;;;;5.50;60.78;99893.31;5051042;28;20037;-86
2021/12/09 01:45:08;;;;;;;8.13;2.75;;;;;;;5.59;61.38;99895.78;5056692;28;20056;-86
2021/12/09 01:47:33;;;;;;;7.47;2.92;;;;;;;5.30;61.74;99890.16;5047355;28;20025;-86
2021/12/09 01:49:59;;;;;;;3.42;1.77;;;;;;;5.39;61.12;99897.75;5054075;28;20029;-85
2021/12/09 01:52:25;;;;;;;6.10;2.55;;;;;;;5.46;60.98;99901.97;5073237;28;20037;-86
2021/12/09 01:54:51;;;;;;;6.95;2.50;;;;;;;5.48;61.06;99901.06;5062072;28;20028;-86
2021/12/09 01:57:18;;;;;;;6.72;2.20;;;;;;;5.28;60.97;99900.50;5057515;28;20127;-86
2021/12/09 01:59:43;;;;;;;7.00;2.28;;;;;;;5.32;61.73;99903.88;5049886;28;20029;-85
2021/12/09 02:02:09;;;;;;;18.05;2.78;;;;;;;5.26;61.22;99914.25;5052388;28;20041;-86
2021/12/09 02:04:34;;;;;;;5.40;2.40;;;;;;;5.27;61.66;99909.06;5056279;28;20032;-86
2021/12/09 02:07:00;;;;;;;4.65;2.25;;;;;;;5.20;62.27;99912.63;5052105;28;20501;-85
2021/12/09 02:09:25;;;;;;;6.28;2.35;;;;;;;5.12;61.85;99917.00;5051341;28;20033;-85
2021/12/09 02:11:51;;;;;;;6.45;2.17;;;;;;;4.83;62.52;99912.19;5060458;28;20063;-85
2021/12/09 02:14:17;;;;;;;6.60;2.30;;;;;;;5.14;61.22;99909.25;5054063;28;20028;-85
2021/12/09 02:16:42;;;;;;;7.45;2.92;;;;;;;5.18;61.32;99910.91;5051161;28;20032;-86
2021/12/09 02:19:11;;;;;;;5.80;3.20;;;;;;;4.99;62.54;99920.59;5049937;28;20693;-85
2021/12/09 02:21:36;;;;;;;6.72;2.63;;;;;;;5.27;61.77;99905.63;5052278;28;20041;-85
2021/12/09 02:24:08;;;;;;;3.45;2.20;;;;;;;5.44;61.55;99911.44;5057759;28;20029;-85
2021/12/09 02:26:37;;;;;;;7.65;2.25;;;;;;;5.46;61.47;99901.97;5062767;28;20059;-86
2021/12/09 02:29:06;;;;;;;7.28;2.42;;;;;;;5.52;61.42;99896.72;5040495;28;20152;-86
2021/12/09 02:31:32;;;;;;;8.98;2.72;;;;;;;5.48;61.42;99889.91;5056802;28;20115;-85
2021/12/09 02:33:58;;;;;;;10.48;2.88;;;;;;;5.48;61.26;99884.75;5056070;28;20508;-85
2021/12/09 02:36:25;;;;;;;9.32;2.80;;;;;;;5.50;61.15;99888.19;5054956;28;20114;-85
2021/12/09 02:38:50;;;;;;;9.35;3.03;;;;;;;5.57;60.68;99879.47;5046030;28;20029;-85
2021/12/09 02:41:19;;;;;;;5.38;2.47;;;;;;;5.59;60.71;99885.47;5049443;28;20032;-85
2021/12/09 02:43:51;;;;;;;8.80;2.30;;;;;;;5.61;60.68;99885.44;5053304;28;20119;-85
2021/12/09 02:46:18;;;;;;;7.75;2.78;;;;;;;5.60;60.61;99884.56;5057936;28;20055;-85
2021/12/09 02:48:44;;;;;;;11.98;2.50;;;;;;;5.45;61.18;99889.94;5057481;28;20677;-86
2021/12/09 02:51:09;;;;;;;8.10;2.38;;;;;;;5.45;60.87;99887.38;5056634;28;20041;-85
2021/12/09 02:53:36;;;;;;;6.95;2.67;;;;;;;5.41;60.46;99893.47;5059477;28;20059;-85
2021/12/09 02:56:03;;;;;;;7.80;2.53;;;;;;;5.34;61.40;99891.81;5052711;28;20040;-85
2021/12/09 02:58:28;;;;;;;6.95;2.38;;;;;;;5.32;61.79;99886.72;5050883;28;20033;-85
2021/12/09 03:00:54;;;;;;;7.85;2.50;;;;;;;5.20;62.16;99893.75;5054664;28;20135;-85
2021/12/09 03:03:19;;;;;;;5.90;2.28;;;;;;;5.20;61.32;99883.44;5061830;28;20029;-86
2021/12/09 03:05:46;;;;;;;4.72;2.15;;;;;;;5.18;61.91;99886.03;5060980;28;20070;-85
2021/12/09 03:08:17;;;;;;;5.35;2.30;;;;;;;5.30;61.64;99885.84;5051544;28;20029;-86
2021/12/09 03:10:42;;;;;;;4.38;2.17;;;;;;;5.44;60.54;99871.06;5034796;28;20501;-86
2021/12/09 03:13:10;;;;;;;4.93;2.25;;;;;;;5.45;60.93;99867.63;5040819;28;20120;-85
2021/12/09 03:15:36;;;;;;;4.10;2.28;;;;;;;5.46;61.02;99876.19;5055302;28;20086;-85
2021/12/09 03:18:01;;;;;;;6.82;2.60;;;;;;;5.40;60.56;99873.72;5057215;28;20036;-85
2021/12/09 03:20:27;;;;;;;6.47;1.88;;;;;;;5.30;60.07;99875.56;5054339;28;20059;-85
2021/12/09 03:22:52;;;;;;;4.32;2.28;;;;;;;5.17;59.97;99874.03;5053674;28;20041;-86
2021/12/09 03:25:20;;;;;;;5.57;1.85;;;;;;;5.02;61.04;99878.53;5045831;28;20186;-85
2021/12/09 03:27:46;;;;;;;3.60;1.85;;;;;;;5.01;60.92;99874.25;5049288;28;20035;-85
2021/12/09 03:30:15;;;;;;;5.35;2.17;;;;;;;5.02;60.19;99871.66;5051347;28;20091;-85
2021/12/09 03:32:41;;;;;;;5.53;2.15;;;;;;;5.11;59.35;99889.56;5054765;28;20025;-85
2021/12/09 03:35:08;;;;;;;5.68;1.75;;;;;;;5.08;59.72;99892.19;5059985;28;20506;-86
2021/12/09 03:37:34;;;;;;;5.32;2.10;;;;;;;4.50;60.84;99896.25;5048454;28;20044;-85
2021/12/09 03:39:59;;;;;;;7.28;2.50;;;;;;;4.85;60.22;99895.00;5051746;28;20033;-85
2021/12/09 03:42:28;;;;;;;5.07;1.92;;;;;;;4.38;61.58;99893.84;5054908;28;20510;-85
2021/12/09 03:44:54;;;;;;;5.15;1.90;;;;;;;4.35;61.88;99900.69;5054434;28;20044;-85
2021/12/09 03:47:23;;;;;;;5.22;2.17;;;;;;;4.03;62.36;99896.69;5047684;28;20025;-85
2021/12/09 03:49:49;;;;;;;5.40;2.85;;;;;;;4.48;60.92;99898.88;5056188;28;20033;-86
2021/12/09 03:52:15;;;;;;;7.28;3.05;;;;;;;4.43;60.88;99892.94;5049106;28;20048;-85
2021/12/09 03:54:42;;;;;;;5.25;2.47;;;;;;;4.44;60.19;99899.75;5053383;28;20377;-86
2021/12/09 03:57:08;;;;;;;8.70;2.78;;;;;;;4.50;60.16;99894.56;5065500;28;20119;-85
2021/12/09 03:59:34;;;;;;;6.20;2.00;;;;;;;4.64;59.54;99897.00;5053809;28;20025;-86
2021/12/09 04:02:00;;;;;;;3.40;1.80;;;;;;;4.69;59.61;99901.22;5049536;28;20041;-85
2021/12/09 04:04:26;;;;;;;4.55;1.77;;;;;;;4.60;59.79;99888.47;5056013;28;20144;-86
2021/12/09 04:06:53;;;;;;;5.15;2.33;;;;;;;4.76;59.29;99892.53;5053526;28;20036;-86
2021/12/09 04:09:22;;;;;;;4.03;1.80;;;;;;;4.68;59.17;99896.94;5048586;28;20043;-85
2021/12/09 04:11:48;;;;;;;6.68;2.20;;;;;;;4.59;59.78;99899.59;5054981;28;20053;-85
2021/12/09 04:14:13;;;;;;;6.60;2.28;;;;;;;4.20;61.20;99910.25;5047662;28;20029;-86
2021/12/09 04:16:39;;;;;;;3.10;1.88;;;;;;;4.21;60.91;99905.13;5056401;28;20125;-85
2021/12/09 04:19:07;;;;;;;4.38;1.98;;;;;;;4.47;60.06;99894.59;5041606;28;20045;-86
2021/12/09 04:21:33;;;;;;;5.72;2.10;;;;;;;4.19;60.03;99904.28;5055624;28;20102;-86
2021/12/09 04:23:59;;;;;;;2.50;1.65;;;;;;;4.34;60.47;99908.44;5055733;28;20040;-85
2021/12/09 04:26:24;;;;;;;10.35;2.28;;;;;;;4.54;59.22;99903.94;5055120;28;20044;-85
2021/12/09 04:28:51;;;;;;;2.92;1.73;;;;;;;4.25;60.13;99906.81;5058457;28;20055;-85
2021/12/09 04:31:17;;;;;;;4.78;3.15;;;;;;;4.37;60.47;99905.84;5034534;28;20037;-86
2021/12/09 04:33:43;;;;;;;6.63;2.30;;;;;;;4.47;60.61;99901.44;5051135;28;20037;-86
2021/12/09 04:36:10;;;;;;;5.38;2.00;;;;;;;4.56;59.69;99906.50;5051358;28;20052;-86
2021/12/09 04:38:36;;;;;;;5.65;2.50;;;;;;;4.54;59.98;99909.09;5041883;28;20046;-85
2021/12/09 04:41:01;;;;;;;9.88;2.83;;;;;;;3.81;61.95;99917.41;5048752;28;20033;-86
2021/12/09 04:43:27;;;;;;;4.05;2.47;;;;;;;3.98;61.49;99925.00;5056574;28;20043;-85
2021/12/09 04:45:52;;;;;;;9.93;2.50;;;;;;;4.33;60.48;99923.00;5051306;28;20045;-85
2021/12/09 04:48:18;;;;;;;6.18;2.78;;;;;;;4.33;60.76;99920.44;5053929;28;20036;-86
2021/12/09 04:50:43;;;;;;;8.73;2.70;;;;;;;4.49;60.15;99918.59;5058137;28;20025;-85
2021/12/09 04:53:10;;;;;;;7.57;3.30;;;;;;;4.55;59.46;99922.81;5078608;28;20041;-85
2021/12/09 04:55:35;;;;;;;9.10;3.03;;;;;;;4.06;61.01;99935.25;5076546;28;20103;-86
2021/12/09 04:58:01;;;;;;;6.78;2.97;;;;;;;4.45;59.96;99934.03;5062087;28;20116;-85
2021/12/09 05:00:30;;;;;;;6.40;2.55;;;;;;;4.37;60.01;99939.28;5055422;28;20053;-85
2021/12/09 05:05:28;;;;;;;5.03;2.25;;;;;;;4.23;60.38;99943.66;5059696;28;20388;-86
2021/12/09 05:07:54;;;;;;;4.10;2.50;;;;;;;4.32;60.86;99946.16;5053170;28;20435;-85
2021/12/09 05:10:19;;;;;;;6.05;2.45;;;;;;;4.11;61.05;99944.63;5058988;28;20089;-85
2021/12/09 05:12:44;;;;;;;5.43;2.10;;;;;;;4.35;60.06;99951.25;5060747;28;20040;-85
2021/12/09 05:15:10;;;;;;;8.38;3.15;;;;;;;4.23;60.69;99954.78;5058566;28;20075;-85
2021/12/09 05:17:36;;;;;;;6.15;2.10;;;;;;;4.48;59.48;99958.00;5050406;28;20653;-85
2021/12/09 05:20:04;;;;;;;5.95;2.03;;;;;;;4.48;60.14;99958.00;5053888;28;20040;-85
2021/12/09 05:22:31;;;;;;;4.90;2.35;;;;;;;4.11;61.27;99972.88;5062014;28;20051;-86
2021/12/09 05:24:56;;;;;;;3.88;2.28;;;;;;;4.22;61.35;99973.69;5044828;28;20033;-85
2021/12/09 05:27:22;;;;;;;8.32;2.50;;;;;;;4.49;61.19;99967.44;5053334;28;20045;-86
2021/12/09 05:30:03;;;;;;;6.53;2.42;;;;;;;4.27;62.14;99973.63;5051939;28;20029;-85
2021/12/09 05:32:28;;;;;;;5.85;2.10;;;;;;;4.31;62.17;99981.31;5060251;28;20025;-86
2021/12/09 05:34:54;;;;;;;4.38;2.05;;;;;;;4.45;62.04;99975.19;5058837;28;20489;-86
2021/12/09 05:37:22;;;;;;;6.07;1.88;;;;;;;4.52;61.87;99977.72;5054558;28;20067;-86
2021/12/09 05:39:49;;;;;;;3.28;2.13;;;;;;;4.68;61.00;99981.81;5055603;28;20539;-85
2021/12/09 05:42:19;;;;;;;12.95;3.22;;;;;;;4.29;62.08;99985.59;5050235;28;20033;-85
2021/12/09 05:44:45;;;;;;;4.82;2.40;;;;;;;4.27;62.11;99994.19;5053174;28;20478;-85
2021/12/09 05:47:12;;;;;;;9.98;2.45;;;;;;;4.33;61.53;99996.72;5058473;28;20029;-86
2021/12/09 05:49:40;;;;;;;6.53;3.00;;;;;;;4.27;61.55;99987.34;5053952;28;20051;-86
2021/12/09 05:52:06;;;;;;;13.40;7.40;;;;;;;4.16;62.04;99988.28;5056102;28;20037;-85
2021/12/09 05:54:33;;;;;;;10.20;7.47;;;;;;;4.38;61.04;99983.84;5057654;28;20062;-86
2021/12/09 05:56:58;;;;;;;9.88;6.78;;;;;;;4.46;61.19;99990.63;5058125;28;20043;-85
2021/12/09 05:59:25;;;;;;;6.68;3.58;;;;;;;4.48;61.24;99988.88;5057524;28;20413;-86
2021/12/09 06:01:51;;;;;;;10.57;2.67;;;;;;;3.90;62.05;99990.97;5057122;28;20103;-85
2021/12/09 06:04:17;;;;;;;4.47;2.28;;;;;;;3.85;62.74;99987.59;5060069;28;20433;-86
2021/12/09 06:06:42;;;;;;;5.45;2.55;;;;;;;3.77;62.97;99992.81;5053683;28;20493;-86
2021/12/09 06:09:10;;;;;;;7.38;2.22;;;;;;;3.99;62.32;99992.66;5045878;28;20041;-85
2021/12/09 06:11:38;;;;;;;6.07;2.00;;;;;;;3.96;62.28;99998.66;5048697;28;20029;-85
2021/12/09 06:14:05;;;;;;;5.72;2.63;;;;;;;3.72;63.49;99998.81;5038683;28;20047;-85
2021/12/09 06:16:31;;;;;;;5.18;2.67;;;;;;;3.74;62.90;100004.81;5055442;28;20045;-85
2021/12/09 06:18:56;;;;;;;8.35;2.60;;;;;;;3.85;62.11;100009.84;5060494;28;20135;-85
2021/12/09 06:21:24;;;;;;;4.10;2.53;;;;;;;3.87;63.11;100011.59;5052448;28;20189;-85
2021/12/09 06:23:50;;;;;;;6.70;2.80;;;;;;;3.95;63.10;100025.22;5047686;28;20052;-85
2021/12/09 06:26:16;;;;;;;8.10;2.60;;;;;;;4.30;61.55;100019.88;5067726;28;20425;-85
2021/12/09 06:28:42;;;;;;;3.67;2.10;;;;;;;4.51;61.00;100022.28;5057430;28;20036;-85
2021/12/09 06:31:08;;;;;;;7.40;2.53;;;;;;;4.28;62.09;100027.63;5053223;28;20509;-85
2021/12/09 06:33:34;;;;;;;6.28;2.90;;;;;;;4.16;61.66;100025.13;5055056;28;20048;-85
2021/12/09 06:36:00;;;;;;;4.68;3.25;;;;;;;4.05;62.01;100029.47;5057942;28;20429;-85
2021/12/09 06:38:26;;;;;;;4.75;3.30;;;;;;;4.27;60.92;100030.19;5053705;28;20108;-85
2021/12/09 06:40:51;;;;;;;9.48;2.13;;;;;;;4.02;61.32;100024.31;5049102;28;20043;-85
2021/12/09 06:43:17;;;;;;;3.85;1.83;;;;;;;4.09;61.31;100022.59;5064590;28;20044;-86
2021/12/09 06:45:43;;;;;;;7.15;2.47;;;;;;;4.19;60.67;100021.69;5057820;28;20466;-85
2021/12/09 06:48:09;;;;;;;9.27;2.35;;;;;;;3.79;62.49;100021.88;5054225;28;20033;-85
2021/12/09 06:50:35;;;;;;;5.82;2.63;;;;;;;4.23;61.63;100029.34;5042866;28;20478;-85
2021/12/09 06:53:01;;;;;;;6.85;1.70;;;;;;;3.75;62.86;100029.63;5049947;28;20064;-85
2021/12/09 06:55:26;;;;;;;5.43;2.22;;;;;;;4.29;61.79;100021.59;5053302;28;20067;-85
2021/12/09 06:57:52;;;;;;;5.95;2.72;;;;;;;4.22;61.84;100025.09;5055327;28;20041;-85
2021/12/09 07:00:22;;;;;;;5.88;2.28;;;;;;;4.08;61.52;100031.19;5051100;28;20029;-85
2021/12/09 07:02:48;;;;;;;4.60;2.35;;;;;;;4.10;61.36;100030.31;5063500;28;20017;-84
2021/12/09 07:05:15;;;;;;;6.97;2.20;;;;;;;3.84;62.43;100026.16;5044511;28;20025;-85
2021/12/09 07:07:41;;;;;;;5.25;2.35;;;;;;;4.17;61.20;100023.38;5049635;28;20033;-85
2021/12/09 07:10:09;;;;;;;6.68;2.88;;;;;;;4.15;61.16;100023.41;5052565;28;20036;-85
2021/12/09 07:12:37;;;;;;;8.32;4.57;;;;;;;4.23;61.75;100020.78;5050000;28;20048;-85
2021/12/09 07:15:06;;;;;;;8.90;4.88;;;;;;;4.37;61.56;100013.84;5061702;28;20024;-85
2021/12/09 07:17:31;;;;;;;5.63;3.75;;;;;;;4.45;61.83;100022.34;5058777;28;20416;-85
2021/12/09 07:19:57;;;;;;;9.82;3.97;;;;;;;4.60;61.48;100018.78;5054066;28;20037;-85
2021/12/09 07:22:22;;;;;;;6.18;3.25;;;;;;;4.52;61.37;100018.00;5052477;28;20041;-85
2021/12/09 07:24:48;;;;;;;6.72;2.97;;;;;;;4.17;62.37;100028.53;5057950;28;20120;-85
2021/12/09 07:27:13;;;;;;;6.18;2.88;;;;;;;4.59;61.47;100027.34;5056271;28;20032;-85
2021/12/09 07:29:39;;;;;;;7.95;2.75;;;;;;;4.57;61.60;100029.09;5054766;28;20121;-86
2021/12/09 07:32:05;;;;;;;10.00;3.17;;;;;;;4.60;61.12;100031.63;5050930;28;20094;-85
2021/12/09 07:34:30;;;;;;;7.95;2.50;;;;;;;4.59;61.00;100056.50;5053098;28;20501;-86
2021/12/09 07:37:01;;;;;;;7.50;3.00;;;;;;;4.50;60.71;100063.44;5063663;28;20215;-85
2021/12/09 07:39:27;;;;;;;6.30;2.60;;;;;;;4.25;61.26;100066.19;5055563;28;20086;-85
2021/12/09 07:41:53;;;;;;;8.57;2.70;;;;;;;4.08;61.66;100068.00;5054425;28;20044;-85
2021/12/09 07:44:20;;;;;;;5.53;2.53;;;;;;;4.09;61.76;100071.44;5051885;28;20071;-85
2021/12/09 07:46:48;;;;;;;4.05;2.55;;;;;;;4.09;61.20;100066.28;5046145;28;20033;-86
2021/12/09 07:49:17;;;;;;;6.40;3.10;;;;;;;4.37;61.14;100074.69;5050997;28;20112;-85
2021/12/09 07:51:42;;;;;;;7.47;3.30;;;;;;;4.27;61.91;100073.88;5049913;28;20032;-85
2021/12/09 07:54:08;;;;;;;8.60;3.33;;;;;;;4.26;62.01;100074.75;5048804;28;20037;-85
2021/12/09 07:56:33;;;;;;;7.28;3.53;;;;;;;4.14;62.92;100072.28;5057409;28;20009;-85
2021/12/09 07:59:00;;;;;;;5.25;2.80;;;;;;;4.45;61.38;100076.34;5046073;28;20544;-85
2021/12/09 08:01:25;;;;;;;8.63;3.75;;;;;;;4.56;61.53;100078.81;5053850;28;20228;-85
2021/12/09 08:03:51;;;;;;;8.77;3.38;;;;;;;4.46;61.60;100080.63;5060684;28;20032;-85
2021/12/09 08:06:16;;;;;;;5.47;3.25;;;;;;;4.50;62.11;100074.56;5065062;28;20044;-85
2021/12/09 08:08:42;;;;;;;8.55;3.08;;;;;;;4.63;61.34;100072.78;5055159;28;20111;-85
2021/12/09 08:11:07;;;;;;;7.57;3.45;;;;;;;4.54;61.53;100083.97;5052277;28;20040;-85
2021/12/09 08:13:34;;;;;;;6.95;3.53;;;;;;;4.56;61.05;100089.09;5062013;28;20036;-85
2021/12/09 08:16:00;;;;;;;6.57;3.00;;;;;;;4.53;61.79;100073.69;5053020;28;20543;-85
2021/12/09 08:18:27;;;;;;;10.20;3.35;;;;;;;4.51;61.53;100083.16;5055330;28;20025;-85
2021/12/09 08:21:01;;;;;;;6.75;2.88;;;;;;;4.54;61.80;100076.28;5058329;28;20033;-85
2021/12/09 08:23:27;;;;;;;7.30;2.87;;;;;;;4.43;61.70;100080.66;5064253;28;20033;-85
2021/12/09 08:25:54;;;;;;;5.05;3.30;;;;;;;4.57;61.88;100068.53;5063685;28;20049;-85
2021/12/09 08:28:20;;;;;;;7.90;3.03;;;;;;;4.53;61.96;100071.97;5046879;28;20025;-85
2021/12/09 08:30:46;;;;;;;8.10;3.28;;;;;;;4.64;61.54;100070.19;5054295;28;20033;-85
2021/12/09 08:33:12;;;;;;;5.50;2.95;;;;;;;4.49;62.78;100079.75;5061575;28;20401;-85
2021/12/09 08:35:38;;;;;;;7.70;3.67;;;;;;;4.67;62.13;100080.44;5052769;28;20013;-85
2021/12/09 08:38:05;;;;;;;9.05;3.33;;;;;;;4.62;62.02;100084.78;5053938;28;20040;-85
2021/12/09 08:40:31;;;;;;;6.93;2.70;;;;;;;4.75;62.08;100082.97;5029332;28;20060;-85
2021/12/09 08:42:57;;;;;;;7.72;3.13;;;;;;;4.77;61.52;100087.22;5054625;28;20056;-85
2021/12/09 08:45:22;;;;;;;6.45;3.03;;;;;;;4.67;62.10;100085.56;5058330;28;20036;-85
2021/12/09 08:47:49;;;;;;;7.40;3.42;;;;;;;4.76;61.60;100085.50;5055305;28;20035;-85
2021/12/09 08:50:19;;;;;;;9.77;3.08;;;;;;;4.68;61.58;100084.72;5054402;28;20482;-85
2021/12/09 08:52:46;;;;;;;8.23;3.35;;;;;;;4.60;61.90;100089.09;5060698;28;20045;-85
2021/12/09 08:55:11;;;;;;;4.50;2.92;;;;;;;4.74;61.88;100076.97;5060417;28;20033;-85
2021/12/09 08:57:38;;;;;;;7.03;3.10;;;;;;;4.85;61.43;100087.19;5055512;28;20539;-85
2021/12/09 09:00:09;;;;;;;10.32;3.63;;;;;;;4.78;61.88;100085.50;5057300;28;20053;-85
2021/12/09 09:02:36;;;;;;;7.63;3.10;;;;;;;4.80;62.29;100101.78;5057941;28;20029;-85
2021/12/09 09:05:03;;;;;;;8.10;3.45;;;;;;;4.70;61.56;100111.28;5059837;28;20405;-86
2021/12/09 09:07:28;;;;;;;4.88;3.20;;;;;;;4.60;62.93;100119.94;5059864;28;20044;-85
2021/12/09 09:09:54;;;;;;;6.80;3.20;;;;;;;4.70;62.35;100113.84;5065002;28;20399;-86
2021/12/09 09:12:19;;;;;;;5.93;2.60;;;;;;;4.91;61.38;100108.53;5057780;28;20029;-85
2021/12/09 09:14:45;;;;;;;6.22;2.50;;;;;;;4.95;62.36;100111.09;5071706;28;20032;-84
2021/12/09 09:17:10;;;;;;;8.52;2.75;;;;;;;4.93;62.47;100108.53;5053850;28;20455;-85
2021/12/09 09:19:36;;;;;;;9.85;2.90;;;;;;;4.79;62.11;100120.69;5042436;28;20029;-85
2021/12/09 09:22:02;;;;;;;10.52;3.13;;;;;;;4.99;61.96;100115.34;5039761;28;20036;-85
2021/12/09 09:24:28;;;;;;;11.68;3.15;;;;;;;4.90;62.16;100112.00;5049013;28;20025;-85
2021/12/09 09:26:54;;;;;;;10.43;3.78;;;;;;;5.03;61.57;100107.56;5036021;28;20048;-85
2021/12/09 09:29:20;;;;;;;9.70;3.17;;;;;;;5.03;62.14;100120.44;5052971;28;20032;-85
2021/12/09 09:31:46;;;;;;;5.97;2.53;;;;;;;5.10;62.09;100111.81;5056380;28;20056;-85
2021/12/09 09:34:12;;;;;;;8.82;3.10;;;;;;;4.99;62.18;100113.63;5061904;28;20036;-85
2021/12/09 09:36:43;;;;;;;7.70;2.88;;;;;;;4.99;62.51;100113.63;5052375;28;20512;-85
2021/12/09 09:39:18;;;;;;;7.35;3.08;;;;;;;5.01;62.15;100108.47;5052023;28;20148;-85
2021/12/09 09:41:56;;;;;;;6.43;3.28;;;;;;;5.07;62.34;100108.41;5050763;28;20041;-85
2021/12/09 09:44:28;;;;;;;8.40;3.30;;;;;;;5.07;61.75;100100.69;5055175;28;20029;-85
2021/12/09 09:46:59;;;;;;;6.03;2.88;;;;;;;5.21;61.81;100096.25;5052818;28;20478;-84
2021/12/09 09:49:25;;;;;;;8.63;3.42;;;;;;;5.11;62.22;100104.94;5056477;28;20586;-84
2021/12/09 09:51:51;;;;;;;6.15;2.60;;;;;;;5.14;62.19;100113.50;5050933;28;20581;-84
2021/12/09 09:54:17;;;;;;;6.60;3.13;;;;;;;5.20;61.59;100115.16;5057698;28;20494;-83
2021/12/09 09:56:43;;;;;;;8.82;2.85;;;;;;;5.09;61.83;100110.09;5052990;28;20021;-83
2021/12/09 09:59:12;;;;;;;6.30;3.40;;;;;;;5.00;62.06;100115.31;5054115;28;20029;-84
2021/12/09 10:01:40;;;;;;;8.43;3.22;;;;;;;5.26;62.35;100104.81;5047782;28;20428;-84
2021/12/09 10:04:25;;;;;;;5.10;2.88;;;;;;;5.26;62.20;100112.53;5060874;28;20520;-83
2021/12/09 10:06:52;;;;;;;6.50;2.45;;;;;;;5.14;61.54;100110.06;5045571;28;20103;-83
2021/12/09 10:09:17;;;;;;;8.52;2.67;;;;;;;5.18;61.44;100104.84;5040459;28;20037;-83
2021/12/09 10:11:44;;;;;;;6.93;2.40;;;;;;;5.39;60.25;100096.06;5058362;28;20519;-83
2021/12/09 10:14:13;;;;;;;5.10;2.30;;;;;;;5.27;62.00;100102.19;5052568;28;20542;-84
2021/12/09 10:16:40;;;;;;;8.02;2.50;;;;;;;5.12;61.47;100092.03;5061837;28;20044;-84
2021/12/09 10:19:21;;;;;;;8.20;2.97;;;;;;;5.17;62.43;100097.16;5055341;28;20052;-84
2021/12/09 10:21:48;;;;;;;5.93;2.20;;;;;;;5.20;61.89;100092.84;5050217;28;20036;-84
2021/12/09 10:24:16;;;;;;;9.15;2.47;;;;;;;5.22;61.83;100095.38;5053256;28;20033;-83
2021/12/09 10:26:46;;;;;;;6.35;2.42;;;;;;;5.43;60.83;100090.88;5055065;28;20052;-83
2021/12/09 10:29:25;;;;;;;4.32;2.35;;;;;;;5.13;61.03;100096.34;5049942;28;20029;-83
2021/12/09 10:31:58;;;;;;;6.50;2.38;;;;;;;5.12;62.06;100094.63;5049116;28;20045;-84
2021/12/09 10:34:42;;;;;;;3.92;1.83;;;;;;;5.46;61.26;100090.00;5051762;28;20033;-84
2021/12/09 10:37:07;;;;;;;6.25;2.28;;;;;;;5.13;61.56;100088.63;5049657;28;20087;-83
2021/12/09 10:39:56;;;;;;;5.95;2.08;;;;;;;5.13;61.21;100083.47;5059578;28;20044;-84
2021/12/09 10:42:37;;;;;;;8.10;2.10;;;;;;;5.38;60.85;100072.06;5053301;28;20086;-83
2021/12/09 10:45:06;;;;;;;8.32;2.13;;;;;;;5.51;61.01;100070.16;5054772;28;20175;-83
2021/12/09 10:50:25;;;;;;;6.45;2.08;;;;;;;5.29;60.80;100073.88;5054350;28;20033;-84
2021/12/09 10:54:08;;;;;;;5.00;2.00;;;;;;;5.44;60.81;100082.25;5045194;28;20036;-84
2021/12/09 10:56:04;;;;;;;7.70;2.00;;;;;;;5.40;61.39;100079.75;5042162;28;20037;-84
2021/12/09 10:58:35;;;;;;;3.53;2.10;;;;;;;5.57;61.09;100079.53;5060537;28;20081;-83
2021/12/09 11:01:03;;;;;;;9.18;2.50;;;;;;;5.61;60.47;100079.50;5063348;28;20029;-84
2021/12/09 11:03:32;;;;;;;5.55;2.45;;;;;;;5.56;59.90;100080.44;5054147;28;20037;-83
2021/12/09 11:06:16;;;;;;;12.13;1.90;;;;;;;5.64;60.35;100079.47;5051730;28;20366;-83
2021/12/09 11:08:42;;;;;;;7.13;3.28;;;;;;;5.55;61.22;100071.00;5043577;28;20366;-83
2021/12/09 11:11:32;;;;;;;7.55;2.97;;;;;;;5.67;61.26;100076.00;5059767;28;20036;-84
2021/12/09 11:14:17;;;;;;;8.52;2.55;;;;;;;5.70;59.80;100074.25;5054584;28;20041;-84
2021/12/09 11:16:59;;;;;;;4.63;2.03;;;;;;;5.65;60.63;100072.59;5051402;28;20513;-84
2021/12/09 11:19:39;;;;;;;3.95;1.90;;;;;;;5.88;60.77;100071.44;5054752;28;20296;-83
2021/12/09 11:22:12;;;;;;;3.47;1.80;;;;;;;5.56;59.80;100058.13;5055146;28;20086;-84
2021/12/09 11:24:43;;;;;;;6.25;1.80;;;;;;;5.70;59.57;100055.34;5059021;28;20405;-83
2021/12/09 11:27:14;;;;;;;4.03;2.03;;;;;;;5.77;60.22;100057.81;5050485;28;20036;-84
2021/12/09 11:29:45;;;;;;;6.28;2.42;;;;;;;5.96;60.38;100043.84;5051256;28;20373;-83
2021/12/09 11:32:18;;;;;;;5.90;2.00;;;;;;;6.00;59.74;100047.22;5030632;28;20461;-84
2021/12/09 11:34:55;;;;;;;4.65;2.15;;;;;;;5.88;59.82;100040.50;5035798;28;20112;-83
2021/12/09 11:40:19;;;;;;;10.30;2.40;;;;;;;6.16;59.86;100040.97;5024340;28;20048;-83
2021/12/09 11:42:52;;;;;;;5.90;2.15;;;;;;;6.03;59.17;100042.88;5040722;28;20093;-84
2021/12/09 11:45:22;;;;;;;4.75;2.00;;;;;;;6.00;59.23;100037.78;5046714;28;20091;-84
2021/12/09 11:47:50;;;;;;;3.63;2.00;;;;;;;6.09;59.08;100043.66;5030087;28;20505;-83